METAR Data

Data at: 0746 UTC 28 Sep 2022

METAR for:KGNR (Greenville Muni, ME, US)
Text:KGNR 280656Z AUTO 00000KT 08/07 A2985 RMK AO1 SLP110 T00830067
Temperature: 8.3°C ( 47°F)
Dewpoint: 6.7°C ( 44°F) [RH = 90%]
Pressure (altimeter):29.85 inches Hg (1010.9 mb) [Sea level pressure: 1011.0 mb]
Winds:calm
QC Flag:automated observation with no human augmentation